»·PEaware :: QXE2656 KSEA-KGEG

QXE2656 :: KSEA-KGEG

FLIGHT INFORMATION

Flight Status: Arrived
Operator:
Horizon Air
More flights by this operator :: More flights under this callsign
Pilot: Odinn T. (9086)
Aircraft: DEHAVILLAND DASH 8 400
(DH8D)
More flights by this aircraft type
Origin: KSEA Seattle-Tacoma Intl
United States
Destination: KGEG Spokane Intl
United States
More flights between these airports :: More routes between these airports
Route: +SEA6 ZADON ZELAK ZIRAN ZOOMR ZOOMR1
File this flight plan on PilotEdge
Remarks:
Altitude:
(Current/Filed)
21,000ft
Speed:
(Current/Filed)
400kts
Departed: 22-Dec-17 03:57 PM
Arrived: 22-Dec-17 04:36 PM
Distance/Time
Traveled:
194nm/0:39
Distance/Time
To Go:
Arrived

Flight Plot

Page will automatically refresh every two minutes.

Flight plan parsing failed; only flown route is shown


Map Options




Map Legend


Flown Route
Filed Route
Departure Airport
Arrival Airport
Navaid (VOR, NDB)
Fix

Horizontal Profiles

Position Reports

Time Latitude Longitude Heading Altitude Ground
Speed
22-Dec-17 15:39 47.445870 -122.303371 270 440ft 0kts
22-Dec-17 15:40 47.445870 -122.303371 270 440ft 0kts
22-Dec-17 15:41 47.445870 -122.303371 270 440ft 0kts
22-Dec-17 15:42 47.445870 -122.303371 270 440ft 0kts
22-Dec-17 15:43 47.445870 -122.303371 270 440ft 0kts
22-Dec-17 15:44 47.445870 -122.303371 270 440ft 0kts
22-Dec-17 15:45 47.445870 -122.303371 270 440ft 0kts
22-Dec-17 15:46 47.445870 -122.303371 270 440ft 0kts
22-Dec-17 15:47 47.445870 -122.303371 270 440ft 0kts
22-Dec-17 15:48 47.445873 -122.303834 270 440ft 0kts
22-Dec-17 15:49 47.445873 -122.303834 270 440ft 0kts
22-Dec-17 15:50 47.445873 -122.303844 270 440ft 0kts
22-Dec-17 15:51 47.445873 -122.303844 270 440ft 0kts
22-Dec-17 15:52 47.445873 -122.303844 270 440ft 0kts
22-Dec-17 15:53 47.445873 -122.303844 270 440ft 0kts
22-Dec-17 15:54 47.445873 -122.303844 270 440ft 0kts
22-Dec-17 15:55 47.445873 -122.303844 270 440ft 0kts
22-Dec-17 15:56 47.445873 -122.303844 270 440ft 0kts
22-Dec-17 15:57 47.445873 -122.303844 270 440ft 0kts
22-Dec-17 15:58 47.445873 -122.303844 270 440ft 0kts
22-Dec-17 15:59 47.445854 -122.305587 265 440ft 12kts
22-Dec-17 16:00 47.439958 -122.306162 179 440ft 27kts
22-Dec-17 16:01 47.435106 -122.305581 178 440ft 18kts
22-Dec-17 16:02 47.431561 -122.306168 259 440ft 2kts
22-Dec-17 16:03 47.441022 -122.307975 356 523ft 122kts
22-Dec-17 16:04 47.484415 -122.309502 357 2719ft 185kts
22-Dec-17 16:05 47.542632 -122.310923 0 3734ft 220kts
22-Dec-17 16:06 47.570881 -122.242508 95 6396ft 230kts
22-Dec-17 16:07 47.565543 -122.144420 88 8871ft 243kts
22-Dec-17 16:08 47.564879 -122.041165 87 11181ft 260kts
22-Dec-17 16:09 47.563423 -121.931089 87 13293ft 277kts
22-Dec-17 16:10 47.562147 -121.811503 86 14893ft 314kts
22-Dec-17 16:11 47.561787 -121.697863 85 16354ft 328kts
22-Dec-17 16:12 47.559038 -121.536243 83 18805ft 347kts
22-Dec-17 16:13 47.557623 -121.414704 82 20531ft 361kts
22-Dec-17 16:14 47.555320 -121.227405 84 21168ft 421kts
22-Dec-17 16:15 47.552648 -121.078537 85 21178ft 446kts
22-Dec-17 16:16 47.548343 -120.863764 85 21186ft 438kts
22-Dec-17 16:17 47.545336 -120.715571 85 21200ft 426kts
22-Dec-17 16:18 47.541919 -120.543327 85 21269ft 420kts
22-Dec-17 16:19 47.537743 -120.371671 87 21295ft 431kts
22-Dec-17 16:20 47.528656 -120.193594 90 21300ft 438kts
22-Dec-17 16:21 47.519956 -120.014526 89 21301ft 441kts
22-Dec-17 16:22 47.511236 -119.833022 89 21296ft 443kts
22-Dec-17 16:23 47.502069 -119.651671 89 21287ft 444kts
22-Dec-17 16:24 47.492671 -119.469912 90 21281ft 444kts
22-Dec-17 16:25 47.482895 -119.287588 90 21278ft 444kts
22-Dec-17 16:26 47.472934 -119.106606 91 20023ft 436kts
22-Dec-17 16:27 47.463340 -118.932019 91 18248ft 422kts
22-Dec-17 16:28 47.453305 -118.761763 92 16488ft 407kts
22-Dec-17 16:29 47.443641 -118.599452 92 14888ft 387kts
22-Dec-17 16:30 47.434274 -118.448080 93 13414ft 357kts
22-Dec-17 16:31 47.426899 -118.313034 84 12155ft 298kts
22-Dec-17 16:32 47.448347 -118.199026 68 9999ft 309kts
22-Dec-17 16:33 47.441555 -118.080798 104 7639ft 259kts
22-Dec-17 16:34 47.419743 -117.981181 101 7061ft 244kts
22-Dec-17 16:35 47.428344 -117.885541 76 6169ft 219kts
22-Dec-17 16:36 47.452917 -117.803115 53 5658ft 226kts
22-Dec-17 16:37 47.489790 -117.733762 45 5451ft 212kts
22-Dec-17 16:38 47.526120 -117.676666 43 4813ft 152kts
22-Dec-17 16:39 47.555909 -117.631755 42 4036ft 152kts
22-Dec-17 16:40 47.585340 -117.587487 42 3191ft 139kts
22-Dec-17 16:41 47.609848 -117.550407 42 2550ft 120kts
22-Dec-17 16:42 47.623426 -117.531035 349 2379ft 1kts
22-Dec-17 16:43 47.625353 -117.533630 215 2379ft 13kts
22-Dec-17 16:44 47.625324 -117.534311 2 2379ft 0kts

Navigation Log

Ident Type
Flight plan parsing failed, navigation log unavailable